Time;durP1;ratioP1;P1;durP2;ratioP2;P2;SDS_P1;SDS_P2;PMS_P1;PMS_P2;Temp;Humidity;BMP_temperature;BMP_pressure;BME280_temperature;BME280_humidity;BME280_pressure;Samples;Min_cycle;Max_cycle;Signal;HPM_P1;HPM_P2
2023/08/14 00:00:35;;;;;;;18.23;14.60;;;;;;;21.77;81.25;96338.66;5069516;28;20261;-71
2023/08/14 00:03:01;;;;;;;15.03;13.43;;;;;;;21.76;81.40;96330.78;5069728;28;20224;-71
2023/08/14 00:05:26;;;;;;;18.10;12.83;;;;;;;21.82;80.99;96327.56;5070357;28;20172;-71
2023/08/14 00:07:52;;;;;;;14.20;12.63;;;;;;;21.95;80.42;96329.97;5070414;28;20262;-72
2023/08/14 00:10:17;;;;;;;14.77;13.10;;;;;;;21.82;81.04;96321.38;5069911;28;20236;-71
2023/08/14 00:12:42;;;;;;;17.83;13.60;;;;;;;21.73;81.48;96307.88;5082590;28;20585;-72
2023/08/14 00:15:08;;;;;;;14.47;12.87;;;;;;;21.85;81.11;96310.41;5089952;28;20608;-72
2023/08/14 00:17:34;;;;;;;18.40;12.90;;;;;;;21.78;81.13;96308.31;5096586;28;20202;-72
2023/08/14 00:20:00;;;;;;;16.10;14.20;;;;;;;21.77;81.25;96303.94;5105674;28;20220;-70
2023/08/14 00:22:26;;;;;;;16.33;14.73;;;;;;;21.73;81.09;96294.53;5097584;28;20411;-72
2023/08/14 00:24:51;;;;;;;18.63;14.53;;;;;;;21.81;81.07;96291.16;5095223;28;20468;-71
2023/08/14 00:27:19;;;;;;;21.67;15.27;;;;;;;21.64;81.56;96290.00;5092170;28;20177;-71
2023/08/14 00:29:45;;;;;;;19.77;15.20;;;;;;;21.69;81.43;96284.25;5090298;28;20197;-72
2023/08/14 00:32:10;;;;;;;16.00;14.20;;;;;;;21.64;81.63;96291.81;5089446;28;20791;-73
2023/08/14 00:34:36;;;;;;;17.00;14.07;;;;;;;21.73;81.20;96288.31;5089315;28;20424;-71
2023/08/14 00:37:01;;;;;;;16.93;14.23;;;;;;;21.75;81.15;96292.53;5089349;28;20213;-72
2023/08/14 00:39:26;;;;;;;15.63;14.00;;;;;;;21.72;80.98;96290.16;5089071;28;20317;-71
2023/08/14 00:41:52;;;;;;;19.10;14.63;;;;;;;21.68;81.34;96298.56;5089437;28;20192;-69
2023/08/14 00:44:17;;;;;;;14.10;12.70;;;;;;;21.72;80.83;96295.50;5089317;28;20252;-71
2023/08/14 00:46:42;;;;;;;13.90;11.67;;;;;;;21.65;80.83;96301.53;5089171;28;20592;-71
2023/08/14 00:49:08;;;;;;;11.80;10.60;;;;;;;21.67;80.50;96308.41;5089212;28;20192;-70
2023/08/14 00:51:35;;;;;;;13.03;10.70;;;;;;;21.67;79.87;96299.56;5088252;28;20916;-72
2023/08/14 00:54:00;;;;;;;13.40;10.77;;;;;;;21.71;79.01;96295.66;5089225;28;20180;-71
2023/08/14 00:56:29;;;;;;;10.63;9.60;;;;;;;21.66;78.96;96312.09;5089077;28;20455;-73
2023/08/14 00:58:55;;;;;;;13.97;11.20;;;;;;;21.61;79.35;96308.97;5088771;28;20258;-70
2023/08/14 01:01:20;;;;;;;15.33;11.33;;;;;;;21.63;78.85;96304.31;5088517;28;20408;-72
2023/08/14 01:03:46;;;;;;;11.80;10.60;;;;;;;21.69;78.80;96310.97;5088913;28;20415;-73
2023/08/14 01:06:12;;;;;;;13.70;12.30;;;;;;;21.70;78.64;96307.28;5088963;28;20246;-72
2023/08/14 01:08:38;;;;;;;13.47;12.07;;;;;;;21.68;78.89;96319.94;5088720;28;20511;-71
2023/08/14 01:11:24;;;;;;;12.57;11.27;;;;;;;21.65;78.67;96317.56;5088111;28;20858;-71
2023/08/14 01:14:01;;;;;;;17.03;13.23;;;;;;;21.64;78.82;96315.84;5048857;28;20414;-72
2023/08/14 01:16:33;;;;;;;13.97;11.13;;;;;;;21.64;78.37;96311.38;5048508;28;20452;-72
2023/08/14 01:18:59;;;;;;;18.07;12.10;;;;;;;21.59;78.64;96318.97;5046909;28;21066;-72
2023/08/14 01:21:53;;;;;;;12.77;11.43;;;;;;;21.73;78.00;96315.03;5059284;28;20417;-71
2023/08/14 01:24:31;;;;;;;14.30;12.03;;;;;;;21.62;78.69;96305.31;5065111;28;20431;-70
2023/08/14 01:26:57;;;;;;;14.27;12.77;;;;;;;21.55;78.79;96301.53;5056022;28;20420;-72
2023/08/14 01:29:22;;;;;;;14.73;13.23;;;;;;;21.51;78.85;96305.44;5049459;28;20433;-71
2023/08/14 01:31:48;;;;;;;12.20;11.00;;;;;;;21.49;78.74;96302.06;5047782;28;20167;-72
2023/08/14 01:34:13;;;;;;;11.50;9.90;;;;;;;21.27;79.69;96292.44;5048971;28;20170;-71
2023/08/14 01:36:41;;;;;;;11.37;10.37;;;;;;;21.08;80.82;96299.38;5048576;28;20725;-73
2023/08/14 01:39:09;;;;;;;12.17;11.00;;;;;;;21.05;80.92;96293.47;5048411;28;20218;-73
2023/08/14 01:41:55;;;;;;;11.30;9.87;;;;;;;21.01;81.22;96287.56;5048458;28;20445;-71
2023/08/14 01:44:24;;;;;;;11.03;10.10;;;;;;;21.17;80.71;96280.88;5048685;28;20948;-72
2023/08/14 01:46:51;;;;;;;11.40;10.40;;;;;;;21.24;80.31;96277.53;5048394;28;20402;-72
2023/08/14 01:49:17;;;;;;;14.77;9.80;;;;;;;21.24;80.16;96280.19;5048213;28;20448;-72
2023/08/14 01:51:45;;;;;;;13.00;10.60;;;;;;;21.28;80.17;96270.06;5048793;28;20413;-72
2023/08/14 01:54:11;;;;;;;13.43;11.43;;;;;;;21.28;80.42;96270.94;5048363;28;20452;-73
2023/08/14 01:56:37;;;;;;;11.43;10.37;;;;;;;21.12;80.75;96260.78;5048265;28;21128;-71
2023/08/14 01:59:02;;;;;;;12.53;11.20;;;;;;;21.11;80.87;96261.75;5047678;28;20294;-70
2023/08/14 02:01:28;;;;;;;16.10;11.80;;;;;;;21.08;81.06;96262.03;5048153;28;20237;-71
2023/08/14 02:03:53;;;;;;;11.23;10.00;;;;;;;21.23;80.21;96264.31;5046697;28;20204;-72
2023/08/14 02:06:18;;;;;;;11.90;10.80;;;;;;;21.23;80.15;96258.97;5047854;28;20178;-71
2023/08/14 02:08:44;;;;;;;12.70;11.17;;;;;;;21.22;79.98;96244.78;5047732;28;20252;-73
2023/08/14 02:11:10;;;;;;;12.50;10.57;;;;;;;21.20;80.22;96238.75;5047843;28;20185;-72
2023/08/14 02:13:35;;;;;;;13.27;11.97;;;;;;;21.04;80.68;96247.25;5087457;28;20165;-72
2023/08/14 02:16:02;;;;;;;13.60;12.20;;;;;;;21.15;80.71;96255.16;5088224;28;20177;-71
2023/08/14 02:18:28;;;;;;;13.00;11.70;;;;;;;21.17;80.40;96254.19;5087897;28;20215;-73
2023/08/14 02:20:53;;;;;;;11.97;10.87;;;;;;;21.17;80.31;96259.53;5087730;28;20507;-72
2023/08/14 02:23:19;;;;;;;15.77;13.30;;;;;;;21.23;80.13;96254.47;5087987;28;20208;-72
2023/08/14 02:25:44;;;;;;;14.07;12.57;;;;;;;21.16;80.13;96261.34;5088071;28;20595;-72
2023/08/14 02:28:11;;;;;;;14.57;12.47;;;;;;;21.10;80.43;96259.22;5087575;28;20225;-71
2023/08/14 02:30:38;;;;;;;13.93;12.53;;;;;;;21.10;80.65;96254.72;5087564;28;20170;-72
2023/08/14 02:33:04;;;;;;;13.73;12.30;;;;;;;21.07;80.71;96270.16;5086489;28;20519;-71
2023/08/14 02:35:29;;;;;;;14.30;12.53;;;;;;;21.11;80.82;96282.25;5087473;28;20487;-71
2023/08/14 02:37:55;;;;;;;13.17;11.90;;;;;;;21.18;80.24;96302.06;5086812;28;20201;-72
2023/08/14 02:40:20;;;;;;;12.13;10.93;;;;;;;21.23;79.76;96299.84;5086506;28;20169;-72
2023/08/14 02:42:45;;;;;;;12.30;11.00;;;;;;;21.11;79.78;96292.94;5087117;28;20177;-71
2023/08/14 02:45:11;;;;;;;11.37;9.50;;;;;;;21.11;79.27;96280.41;5086934;28;20165;-73
2023/08/14 02:47:36;;;;;;;11.43;9.47;;;;;;;21.20;78.77;96277.94;5087221;28;20523;-73
2023/08/14 02:50:02;;;;;;;11.30;9.70;;;;;;;21.18;78.51;96269.22;5086787;28;20200;-71
2023/08/14 02:52:27;;;;;;;10.70;9.30;;;;;;;21.21;78.47;96259.09;5088557;28;20892;-70
2023/08/14 02:54:52;;;;;;;11.13;10.03;;;;;;;21.17;78.13;96248.88;5091461;28;20182;-71
2023/08/14 02:57:18;;;;;;;9.53;8.60;;;;;;;21.00;79.18;96253.00;5090093;28;20257;-71
2023/08/14 02:59:43;;;;;;;9.10;7.63;;;;;;;20.66;80.69;96245.28;5087498;28;20224;-72
2023/08/14 03:02:08;;;;;;;8.83;8.00;;;;;;;20.72;80.13;96247.44;5087531;28;20177;-72
2023/08/14 03:04:34;;;;;;;13.10;9.60;;;;;;;20.87;79.46;96240.75;5087019;28;20272;-70
2023/08/14 03:06:59;;;;;;;12.50;8.77;;;;;;;20.86;79.39;96240.91;5087479;28;20165;-72
2023/08/14 03:09:25;;;;;;;8.67;7.87;;;;;;;21.05;78.92;96242.78;5086778;28;20213;-71
2023/08/14 03:11:50;;;;;;;10.97;7.93;;;;;;;21.13;78.48;96248.28;5081352;28;20620;-72
2023/08/14 03:14:16;;;;;;;8.73;7.93;;;;;;;21.19;78.08;96236.19;5066855;28;20663;-72
2023/08/14 03:16:41;;;;;;;7.60;6.90;;;;;;;21.25;77.19;96231.16;5065359;28;20206;-72
2023/08/14 03:19:06;;;;;;;8.30;7.53;;;;;;;21.17;78.07;96233.69;5066616;28;20274;-74
2023/08/14 03:21:32;;;;;;;8.97;8.13;;;;;;;21.14;78.21;96234.81;5067293;28;20182;-72
2023/08/14 03:23:57;;;;;;;8.60;7.80;;;;;;;21.14;78.48;96236.59;5068546;28;20239;-70
2023/08/14 03:26:23;;;;;;;11.43;9.60;;;;;;;21.08;78.71;96240.69;5070680;28;20184;-71
2023/08/14 03:28:48;;;;;;;9.47;8.57;;;;;;;21.04;78.89;96235.75;5070756;28;20194;-72
2023/08/14 03:31:13;;;;;;;9.47;8.57;;;;;;;20.87;79.62;96243.41;5071099;28;20249;-72
2023/08/14 03:33:39;;;;;;;8.33;7.53;;;;;;;20.93;79.47;96255.38;5070801;28;20192;-70
2023/08/14 03:36:04;;;;;;;8.87;8.17;;;;;;;20.85;79.67;96240.03;5070326;28;20265;-71
2023/08/14 03:38:30;;;;;;;9.07;8.27;;;;;;;20.83;79.57;96244.66;5070076;28;20931;-73
2023/08/14 03:40:57;;;;;;;9.57;8.63;;;;;;;20.80;80.04;96228.09;5069762;28;20217;-71
2023/08/14 03:43:22;;;;;;;8.87;8.03;;;;;;;20.50;81.98;96225.28;5070006;28;20527;-72
2023/08/14 03:45:47;;;;;;;9.70;8.63;;;;;;;20.49;81.79;96218.25;5069768;28;20495;-70
2023/08/14 03:48:13;;;;;;;9.30;8.60;;;;;;;20.41;82.13;96220.75;5069719;28;20697;-70
2023/08/14 03:50:38;;;;;;;11.00;9.90;;;;;;;20.50;81.99;96229.75;5069619;28;20200;-71
2023/08/14 03:53:04;;;;;;;10.40;9.33;;;;;;;20.50;81.95;96233.28;5070016;28;20592;-69
2023/08/14 03:55:29;;;;;;;11.00;9.70;;;;;;;20.46;82.16;96233.66;5068485;28;20211;-73
2023/08/14 03:57:56;;;;;;;14.10;9.20;;;;;;;20.70;80.78;96236.91;5069831;28;20205;-70
2023/08/14 04:00:21;;;;;;;10.40;9.40;;;;;;;20.70;80.86;96236.06;5069391;28;20170;-70
2023/08/14 04:02:47;;;;;;;10.87;9.40;;;;;;;20.54;81.67;96230.34;5069741;28;20526;-72
2023/08/14 04:05:12;;;;;;;14.77;9.40;;;;;;;20.55;81.51;96230.22;5069702;28;20177;-71
2023/08/14 04:07:38;;;;;;;21.40;9.37;;;;;;;20.81;80.58;96238.63;5069610;28;20198;-70
2023/08/14 04:10:04;;;;;;;13.67;9.67;;;;;;;20.62;81.31;96246.53;5069290;28;20210;-71
2023/08/14 04:12:29;;;;;;;10.27;9.30;;;;;;;20.37;82.40;96240.63;5080589;28;20170;-72
2023/08/14 04:14:54;;;;;;;10.97;9.97;;;;;;;20.50;82.27;96235.06;5089811;28;20177;-70
2023/08/14 04:17:20;;;;;;;10.83;9.27;;;;;;;20.62;81.59;96227.88;5089694;28;20647;-69
2023/08/14 04:19:45;;;;;;;10.13;8.27;;;;;;;20.71;81.07;96240.41;5089479;28;20251;-72
2023/08/14 04:22:11;;;;;;;14.70;9.30;;;;;;;20.82;80.50;96247.47;5089803;28;20172;-71
2023/08/14 04:24:36;;;;;;;10.47;8.73;;;;;;;20.88;80.16;96239.78;5089694;28;20899;-71
2023/08/14 04:27:01;;;;;;;8.90;8.00;;;;;;;20.92;79.99;96246.50;5089563;28;20178;-73
2023/08/14 04:29:27;;;;;;;10.10;9.10;;;;;;;20.91;80.24;96244.00;5089552;28;20193;-72
2023/08/14 04:31:52;;;;;;;9.43;8.53;;;;;;;20.75;80.85;96239.16;5089783;28;20258;-70
2023/08/14 04:34:18;;;;;;;13.20;9.37;;;;;;;20.83;80.57;96239.31;5089455;28;20645;-71
2023/08/14 04:36:43;;;;;;;9.70;8.70;;;;;;;20.78;80.90;96243.38;5088717;28;20205;-71
2023/08/14 04:39:08;;;;;;;9.97;8.30;;;;;;;20.84;80.38;96232.19;5088945;28;20743;-69
2023/08/14 04:41:34;;;;;;;9.67;8.70;;;;;;;20.88;80.24;96237.13;5089176;28;20263;-72
2023/08/14 04:44:00;;;;;;;14.37;9.33;;;;;;;20.88;80.23;96228.25;5089158;28;20836;-71
2023/08/14 04:46:35;;;;;;;12.13;9.30;;;;;;;20.75;80.93;96233.00;5089124;28;20170;-71
2023/08/14 04:49:02;;;;;;;9.83;9.03;;;;;;;20.47;82.43;96241.50;5088692;28;20438;-70
2023/08/14 04:51:27;;;;;;;10.90;8.60;;;;;;;20.79;80.78;96235.25;5089252;28;20412;-72
2023/08/14 04:53:54;;;;;;;10.30;9.20;;;;;;;20.85;80.44;96240.03;5089117;28;20769;-71
2023/08/14 04:56:20;;;;;;;12.10;11.00;;;;;;;20.99;80.21;96251.31;5089100;28;20184;-70
2023/08/14 04:58:46;;;;;;;10.63;9.60;;;;;;;20.99;80.60;96251.31;5088801;28;20828;-71
2023/08/14 05:01:11;;;;;;;12.27;9.20;;;;;;;21.02;80.11;96251.03;5088544;28;20504;-71
2023/08/14 05:03:37;;;;;;;13.20;9.83;;;;;;;20.94;80.71;96247.22;5088756;28;20419;-71
2023/08/14 05:06:02;;;;;;;23.80;12.70;;;;;;;21.03;80.33;96239.41;5088959;28;20256;-71
2023/08/14 05:08:28;;;;;;;12.43;10.73;;;;;;;20.98;80.55;96233.63;5088760;28;20189;-72
2023/08/14 05:10:54;;;;;;;23.10;10.47;;;;;;;21.53;78.39;96236.72;5088526;28;20202;-70
2023/08/14 05:13:20;;;;;;;11.77;10.07;;;;;;;21.86;76.72;96232.78;5070757;28;20284;-70
2023/08/14 05:15:48;;;;;;;10.73;8.80;;;;;;;22.13;75.57;96240.06;5068728;28;20476;-72
2023/08/14 05:18:14;;;;;;;12.07;8.87;;;;;;;22.41;74.24;96246.38;5068193;28;20256;-71
2023/08/14 05:20:43;;;;;;;14.50;9.10;;;;;;;22.23;74.80;96247.28;5068044;28;20487;-71
2023/08/14 05:23:09;;;;;;;12.70;9.03;;;;;;;22.05;75.11;96249.81;5068121;28;20435;-71
2023/08/14 05:25:34;;;;;;;13.00;10.17;;;;;;;21.89;76.14;96247.69;5067987;28;20465;-71
2023/08/14 05:27:59;;;;;;;14.97;9.00;;;;;;;21.61;77.65;96257.38;5066405;28;20239;-75
2023/08/14 05:30:25;;;;;;;10.47;9.57;;;;;;;21.51;78.08;96258.22;5067756;28;20174;-70
2023/08/14 05:32:50;;;;;;;10.60;9.63;;;;;;;21.66;77.57;96264.00;5067865;28;20231;-71
2023/08/14 05:35:16;;;;;;;12.57;9.60;;;;;;;21.71;77.46;96259.09;5068246;28;20192;-71
2023/08/14 05:37:42;;;;;;;15.20;10.00;;;;;;;21.68;77.42;96263.84;5067980;28;20682;-71
2023/08/14 05:40:10;;;;;;;11.73;10.50;;;;;;;21.88;77.15;96267.41;5067633;28;20178;-70
2023/08/14 05:42:36;;;;;;;10.90;9.77;;;;;;;21.89;76.93;96266.41;5066582;28;20809;-73
2023/08/14 05:45:01;;;;;;;12.13;10.60;;;;;;;21.78;77.35;96262.06;5068051;28;20549;-73
2023/08/14 05:47:27;;;;;;;13.27;11.97;;;;;;;21.58;78.19;96269.19;5068703;28;20408;-71
2023/08/14 05:49:52;;;;;;;13.00;11.60;;;;;;;21.44;78.91;96269.59;5070789;28;20286;-73
2023/08/14 05:52:17;;;;;;;13.10;11.83;;;;;;;21.34;79.33;96273.03;5067998;28;20532;-70
2023/08/14 05:54:43;;;;;;;13.33;11.97;;;;;;;21.43;79.04;96270.59;5068711;28;20227;-72
2023/08/14 05:57:08;;;;;;;13.17;11.70;;;;;;;21.51;78.81;96273.41;5067737;28;20198;-69
2023/08/14 05:59:33;;;;;;;14.53;13.03;;;;;;;21.46;79.14;96276.47;5067191;28;20274;-70
2023/08/14 06:01:59;;;;;;;20.23;15.63;;;;;;;21.48;79.09;96269.19;5068181;28;20174;-71
2023/08/14 06:04:26;;;;;;;19.17;16.30;;;;;;;21.51;79.07;96271.56;5067840;28;20257;-71
2023/08/14 06:06:51;;;;;;;24.90;18.87;;;;;;;21.57;78.91;96264.84;5067625;28;20181;-71
2023/08/14 06:09:17;;;;;;;27.63;18.67;;;;;;;21.56;79.07;96257.81;5067240;28;20971;-72
2023/08/14 06:11:43;;;;;;;27.07;19.20;;;;;;;21.74;78.34;96250.78;5072043;28;20177;-71
2023/08/14 06:14:08;;;;;;;33.13;19.70;;;;;;;22.21;76.51;96258.13;5087797;28;20413;-72
2023/08/14 06:16:34;;;;;;;56.03;24.50;;;;;;;22.39;75.55;96252.88;5087792;28;20205;-72
2023/08/14 06:18:59;;;;;;;37.00;18.70;;;;;;;22.21;76.33;96251.94;5087474;28;20275;-71
2023/08/14 06:21:25;;;;;;;29.90;19.43;;;;;;;22.25;76.15;96250.66;5087846;28;20181;-72
2023/08/14 06:23:50;;;;;;;25.27;18.80;;;;;;;22.09;76.85;96252.06;5087667;28;20177;-72
2023/08/14 06:26:16;;;;;;;19.03;17.13;;;;;;;22.52;75.75;96237.38;5087782;28;20180;-70
2023/08/14 06:28:41;;;;;;;17.60;15.80;;;;;;;23.46;72.22;96242.59;5087189;28;20246;-70
2023/08/14 06:31:07;;;;;;;31.30;16.93;;;;;;;23.50;70.96;96240.44;5087361;28;20174;-72
2023/08/14 06:33:32;;;;;;;19.43;16.40;;;;;;;23.65;70.61;96233.56;5087431;28;20181;-73
2023/08/14 06:35:58;;;;;;;19.70;15.13;;;;;;;23.90;69.72;96236.50;5087320;28;20315;-72
2023/08/14 06:38:23;;;;;;;25.17;16.57;;;;;;;24.52;67.42;96231.16;5087305;28;20274;-72
2023/08/14 06:40:48;;;;;;;18.80;15.73;;;;;;;24.44;67.02;96242.63;5087064;28;20170;-71
2023/08/14 06:43:14;;;;;;;50.50;18.40;;;;;;;24.68;66.21;96246.50;5087348;28;20181;-70
2023/08/14 06:45:39;;;;;;;15.90;12.73;;;;;;;24.80;65.17;96253.25;5087267;28;20245;-72
2023/08/14 06:48:05;;;;;;;24.10;11.63;;;;;;;24.97;65.46;96250.66;5087220;28;20186;-71
2023/08/14 06:50:30;;;;;;;18.37;11.70;;;;;;;25.61;63.27;96246.59;5087411;28;20188;-70
2023/08/14 06:52:56;;;;;;;12.93;10.83;;;;;;;26.08;61.55;96242.44;5087426;28;20219;-72
2023/08/14 06:55:21;;;;;;;12.90;10.10;;;;;;;26.13;61.20;96237.44;5087615;28;20655;-72
2023/08/14 06:57:47;;;;;;;15.17;10.87;;;;;;;25.88;60.91;96242.78;5087235;28;20204;-71
2023/08/14 07:00:13;;;;;;;10.97;9.80;;;;;;;26.30;59.81;96235.56;5090675;28;20176;-72
2023/08/14 07:02:39;;;;;;;11.10;9.40;;;;;;;26.54;59.64;96230.19;5091193;28;20264;-71
2023/08/14 07:05:05;;;;;;;12.57;7.93;;;;;;;26.88;58.34;96228.25;5091203;28;20419;-69
2023/08/14 07:07:30;;;;;;;16.10;9.43;;;;;;;26.37;59.52;96220.44;5091104;28;20411;-73
2023/08/14 07:09:56;;;;;;;11.00;9.90;;;;;;;25.97;60.33;96222.97;5090674;28;20215;-72
2023/08/14 07:12:22;;;;;;;9.73;8.73;;;;;;;26.21;60.39;96228.53;5081041;28;20257;-71
2023/08/14 07:14:47;;;;;;;8.53;7.63;;;;;;;25.79;60.20;96224.94;5070700;28;20177;-70
2023/08/14 07:17:13;;;;;;;10.87;7.37;;;;;;;25.89;58.91;96233.72;5070509;28;20301;-71
2023/08/14 07:19:38;;;;;;;9.77;8.70;;;;;;;25.53;62.11;96228.56;5070424;28;20190;-69
2023/08/14 07:22:04;;;;;;;9.07;7.10;;;;;;;25.97;60.51;96231.03;5070638;28;20196;-73
2023/08/14 07:24:29;;;;;;;8.13;7.03;;;;;;;26.12;59.55;96228.50;5070559;28;20186;-68
2023/08/14 07:26:54;;;;;;;13.90;8.40;;;;;;;25.75;59.78;96226.28;5070686;28;20253;-71
2023/08/14 07:29:20;;;;;;;8.37;7.50;;;;;;;26.18;59.84;96225.16;5070535;28;20558;-72
2023/08/14 07:31:45;;;;;;;12.70;7.70;;;;;;;26.55;59.41;96221.13;5070858;28;20575;-72
2023/08/14 07:34:10;;;;;;;8.93;7.50;;;;;;;26.56;59.09;96225.47;5070753;28;20178;-73
2023/08/14 07:36:36;;;;;;;10.57;8.77;;;;;;;26.75;58.35;96228.81;5070972;28;20170;-71
2023/08/14 07:39:01;;;;;;;15.77;9.90;;;;;;;26.92;58.74;96229.59;5070401;28;20196;-73
2023/08/14 07:41:27;;;;;;;10.30;8.77;;;;;;;27.07;57.85;96238.59;5070572;28;20219;-71
2023/08/14 07:43:52;;;;;;;10.37;9.20;;;;;;;27.28;57.34;96234.53;5070357;28;20205;-72
2023/08/14 07:46:18;;;;;;;9.40;8.30;;;;;;;27.23;56.51;96240.44;5070461;28;20210;-70
2023/08/14 07:48:43;;;;;;;8.47;7.67;;;;;;;26.50;58.83;96230.66;5069931;28;20197;-72
2023/08/14 07:51:09;;;;;;;8.23;7.43;;;;;;;26.58;59.26;96239.59;5069935;28;20178;-72
2023/08/14 07:53:34;;;;;;;11.00;8.23;;;;;;;26.94;58.99;96238.34;5069969;28;20200;-71
2023/08/14 07:55:59;;;;;;;12.77;7.93;;;;;;;26.70;58.03;96242.78;5069967;28;20178;-73
2023/08/14 07:58:25;;;;;;;9.03;8.13;;;;;;;26.36;59.29;96243.81;5069897;28;20206;-72
2023/08/14 08:00:51;;;;;;;10.23;8.50;;;;;;;26.04;60.69;96238.44;5069930;28;20252;-71
2023/08/14 08:03:16;;;;;;;8.27;7.57;;;;;;;26.64;58.77;96242.63;5069881;28;20182;-70
2023/08/14 08:05:42;;;;;;;7.73;6.77;;;;;;;26.87;57.94;96243.56;5069911;28;20488;-72
2023/08/14 08:08:07;;;;;;;7.33;6.30;;;;;;;26.84;57.97;96253.88;5070106;28;20190;-72
2023/08/14 08:10:33;;;;;;;8.00;6.67;;;;;;;27.20;55.86;96248.88;5068233;28;20180;-69
2023/08/14 08:12:59;;;;;;;8.60;4.97;;;;;;;27.63;51.66;96246.63;5084874;28;20185;-70
2023/08/14 08:15:24;;;;;;;8.10;4.63;;;;;;;27.85;50.75;96247.69;5090193;28;20407;-71
2023/08/14 08:17:49;;;;;;;7.33;4.23;;;;;;;27.93;49.93;96239.56;5090071;28;20209;-71
2023/08/14 08:20:15;;;;;;;10.07;4.97;;;;;;;27.90;50.82;96242.63;5089977;28;20652;-70
2023/08/14 08:22:40;;;;;;;5.77;5.10;;;;;;;27.77;51.58;96247.75;5090187;28;20195;-71
2023/08/14 08:25:06;;;;;;;7.47;4.53;;;;;;;27.82;51.45;96248.88;5090129;28;20193;-71
2023/08/14 08:27:34;;;;;;;11.47;6.27;;;;;;;27.63;52.43;96244.78;5090059;28;20165;-71
2023/08/14 08:30:00;;;;;;;7.33;5.23;;;;;;;27.41;53.39;96246.41;5089667;28;20823;-72
2023/08/14 08:32:25;;;;;;;5.90;5.40;;;;;;;27.14;53.95;96244.16;5090005;28;20411;-70
2023/08/14 08:34:50;;;;;;;8.67;5.90;;;;;;;26.88;54.95;96245.25;5089994;28;20273;-70
2023/08/14 08:37:19;;;;;;;8.80;5.33;;;;;;;26.96;54.71;96252.47;5089740;28;20201;-72
2023/08/14 08:39:44;;;;;;;11.00;6.20;;;;;;;27.19;55.00;96250.75;5089610;28;20242;-71
2023/08/14 08:42:10;;;;;;;5.97;5.10;;;;;;;26.73;55.50;96247.81;5089838;28;20403;-70
2023/08/14 08:44:38;;;;;;;11.10;5.80;;;;;;;27.28;54.20;96245.31;5089795;28;20702;-71
2023/08/14 08:47:08;;;;;;;6.10;5.10;;;;;;;27.29;52.93;96241.63;5089514;28;20203;-69
2023/08/14 08:49:37;;;;;;;5.50;4.20;;;;;;;27.61;51.17;96240.59;5089165;28;20996;-70
2023/08/14 08:52:03;;;;;;;5.77;4.60;;;;;;;26.67;53.61;96242.25;5089109;28;20749;-71
2023/08/14 08:54:30;;;;;;;6.90;5.30;;;;;;;26.71;54.45;96233.69;5089326;28;20417;-71
2023/08/14 08:56:56;;;;;;;5.97;5.37;;;;;;;27.27;53.33;96236.38;5089077;28;20455;-71
2023/08/14 08:59:22;;;;;;;11.80;5.73;;;;;;;27.35;52.36;96248.97;5088927;28;20458;-71
2023/08/14 09:01:47;;;;;;;5.10;4.60;;;;;;;27.54;52.02;96255.78;5088915;28;20417;-71
2023/08/14 09:04:14;;;;;;;5.70;5.07;;;;;;;27.95;51.13;96253.72;5089230;28;20411;-70
2023/08/14 09:06:39;;;;;;;10.13;5.10;;;;;;;28.41;50.23;96250.97;5088970;28;20169;-71
2023/08/14 09:09:06;;;;;;;10.77;5.20;;;;;;;28.78;48.39;96251.19;5088525;28;20441;-71
2023/08/14 09:11:32;;;;;;;7.83;4.70;;;;;;;28.68;48.12;96251.47;5085936;28;20299;-72
2023/08/14 09:13:58;;;;;;;5.50;4.47;;;;;;;28.48;48.20;96243.03;5068975;28;20491;-71
2023/08/14 09:16:24;;;;;;;6.87;5.30;;;;;;;28.28;49.16;96253.47;5069229;28;20335;-71
2023/08/14 09:18:49;;;;;;;8.67;5.23;;;;;;;28.25;49.79;96251.13;5068521;28;20513;-71
2023/08/14 09:21:15;;;;;;;10.67;5.17;;;;;;;28.22;48.79;96249.63;5068559;28;20192;-72
2023/08/14 09:23:42;;;;;;;10.30;4.47;;;;;;;28.31;49.16;96242.31;5068760;28;20593;-71
2023/08/14 09:26:08;;;;;;;7.13;4.70;;;;;;;28.20;49.80;96246.25;5069013;28;20170;-71
2023/08/14 09:28:35;;;;;;;6.40;4.57;;;;;;;28.81;48.13;96243.53;5068961;28;20432;-71
2023/08/14 09:31:07;;;;;;;13.17;4.30;;;;;;;29.59;45.78;96240.44;5068697;28;20416;-74
2023/08/14 09:33:33;;;;;;;6.73;4.30;;;;;;;29.45;45.52;96240.25;5068726;28;20412;-71
2023/08/14 09:35:59;;;;;;;7.23;4.67;;;;;;;29.72;45.76;96229.81;5068838;28;20418;-71
2023/08/14 09:38:24;;;;;;;7.97;4.10;;;;;;;29.95;44.49;96235.03;5068195;28;20205;-70
2023/08/14 09:40:56;;;;;;;5.43;4.47;;;;;;;29.56;45.32;96236.25;5068090;28;20169;-72
2023/08/14 09:43:21;;;;;;;12.07;4.50;;;;;;;29.52;45.98;96237.66;5068490;28;20196;-69
2023/08/14 09:45:47;;;;;;;35.50;7.00;;;;;;;29.27;45.66;96247.94;5068635;28;20503;-73
2023/08/14 09:48:12;;;;;;;7.70;4.20;;;;;;;29.31;45.78;96239.25;5068235;28;20194;-71
2023/08/14 09:50:37;;;;;;;8.63;4.73;;;;;;;28.86;47.73;96243.81;5067983;28;20170;-71
2023/08/14 09:53:03;;;;;;;4.43;4.03;;;;;;;28.47;47.86;96244.06;5068294;28;20201;-72
2023/08/14 09:55:28;;;;;;;4.57;3.90;;;;;;;28.33;48.45;96240.28;5068548;28;20248;-70
2023/08/14 09:57:57;;;;;;;4.83;4.20;;;;;;;28.34;48.30;96247.34;5068299;28;20201;-72
2023/08/14 10:00:29;;;;;;;7.77;4.20;;;;;;;28.86;47.85;96243.81;5067925;28;20173;-70
2023/08/14 10:02:55;;;;;;;6.27;3.90;;;;;;;29.03;46.98;96243.63;5068324;28;21250;-70
2023/08/14 10:05:23;;;;;;;4.40;4.00;;;;;;;28.86;46.12;96235.72;5068138;28;20416;-71
2023/08/14 10:07:49;;;;;;;4.90;4.40;;;;;;;29.00;46.44;96225.09;5067924;28;20412;-71
2023/08/14 10:10:15;;;;;;;6.60;4.00;;;;;;;28.86;46.73;96222.19;5067673;28;20508;-71
2023/08/14 10:13:04;;;;;;;4.40;3.90;;;;;;;28.77;46.09;96226.00;5080808;28;20565;-71
2023/08/14 10:15:34;;;;;;;4.10;3.70;;;;;;;29.02;46.06;96231.16;5088039;28;20532;-70
2023/08/14 10:18:15;;;;;;;3.90;3.53;;;;;;;28.77;46.30;96217.09;5088111;28;20462;-71
2023/08/14 10:20:43;;;;;;;5.90;4.10;;;;;;;28.90;46.50;96211.88;5087702;28;20992;-71
2023/08/14 10:23:10;;;;;;;6.33;3.80;;;;;;;28.80;46.85;96214.88;5087961;28;20516;-72
2023/08/14 10:25:38;;;;;;;6.13;3.90;;;;;;;28.49;47.86;96207.75;5087987;28;20924;-71
2023/08/14 10:28:07;;;;;;;5.10;4.30;;;;;;;28.89;47.06;96211.06;5087981;28;20403;-70
2023/08/14 10:30:34;;;;;;;5.60;5.10;;;;;;;28.40;48.21;96203.44;5087713;28;20400;-69
2023/08/14 10:33:01;;;;;;;7.80;3.97;;;;;;;28.86;47.96;96203.28;5087491;28;20404;-73
2023/08/14 10:35:26;;;;;;;5.67;4.47;;;;;;;28.77;46.12;96196.31;5089133;28;20403;-72
2023/08/14 10:37:52;;;;;;;3.90;3.43;;;;;;;28.70;46.60;96203.47;5088754;28;20787;-73
2023/08/14 10:40:22;;;;;;;3.57;3.13;;;;;;;28.58;46.12;96202.25;5088386;28;20161;-71
2023/08/14 10:42:51;;;;;;;5.80;3.90;;;;;;;28.69;45.96;96201.81;5089261;28;20173;-72
2023/08/14 10:45:18;;;;;;;5.30;3.60;;;;;;;28.98;46.40;96194.72;5091654;28;20857;-73
2023/08/14 10:47:44;;;;;;;4.30;3.60;;;;;;;28.78;45.37;96200.69;5097982;28;20470;-72
2023/08/14 10:50:18;;;;;;;4.13;3.80;;;;;;;28.40;45.37;96203.44;5095192;28;20403;-72
2023/08/14 10:52:46;;;;;;;4.03;3.47;;;;;;;28.45;45.24;96194.78;5093143;28;20971;-72
2023/08/14 10:55:23;;;;;;;4.20;3.60;;;;;;;28.36;45.76;96199.41;5086446;28;20446;-71
2023/08/14 10:57:49;;;;;;;4.80;3.80;;;;;;;28.89;45.23;96192.13;5087631;28;20482;-72
2023/08/14 11:00:20;;;;;;;7.37;3.57;;;;;;;29.15;45.38;96196.25;5087454;28;20469;-73
2023/08/14 11:03:04;;;;;;;4.20;3.63;;;;;;;28.73;46.61;96205.84;5088396;28;20260;-71
2023/08/14 11:05:38;;;;;;;3.60;2.80;;;;;;;28.77;47.07;96198.19;5087437;28;20486;-72
2023/08/14 11:08:06;;;;;;;3.43;3.13;;;;;;;28.64;47.67;96199.66;5087125;28;21005;-71
2023/08/14 11:10:33;;;;;;;4.43;4.03;;;;;;;28.67;47.57;96190.34;5087071;28;20476;-70
2023/08/14 11:12:58;;;;;;;7.80;3.80;;;;;;;28.91;46.96;96191.94;5072511;28;20419;-70
2023/08/14 11:15:24;;;;;;;7.40;3.80;;;;;;;29.03;47.13;96186.91;5067107;28;20396;-71
2023/08/14 11:17:50;;;;;;;4.67;4.10;;;;;;;28.99;46.92;96194.56;5066818;28;20572;-71
2023/08/14 11:20:16;;;;;;;8.23;4.50;;;;;;;28.94;46.43;96196.97;5067534;28;20237;-72